Date,TemperatureHighF,TemperatureAvgF,TemperatureLowF,DewpointHighF,DewpointAvgF,DewpointLowF,HumidityHigh,HumidityAvg,HumidityLow,PressureMaxIn,PressureMinIn,WindSpeedMaxMPH,WindSpeedAvgMPH,GustSpeedMaxMPH,PrecipitationSumIn
2013-1-1,48,35,29,42,33,29,99,90,67,30.38,30.23,1,0,6,0.00
2013-1-2,53,36,29,38,31,27,97,85,51,30.24,30.10,3,0,7,0.00
2013-1-3,48,39,29,48,34,27,99,86,57,30.23,30.05,5,1,8,0.46
2013-1-4,55,46,39,50,44,38,99,95,77,30.30,30.12,1,0,6,0.10
2013-1-5,50,44,40,44,42,40,99,92,81,30.17,30.07,4,0,6,0.12
2013-1-6,50,45,38,48,43,38,99,95,84,30.21,30.07,1,0,6,0.18
2013-1-7,52,49,45,51,48,45,99,98,95,30.23,30.02,5,1,13,0.84
2013-1-8,52,50,47,51,50,47,99,98,95,30.21,29.94,3,1,8,0.54
2013-1-9,50,42,36,48,41,35,98,96,86,30.00,29.81,5,0,14,0.77
2013-1-10,42,36,33,41,36,32,99,98,94,30.14,29.99,3,0,14,0.58
2013-1-11,46,35,30,42,34,29,99,94,63,30.30,30.12,2,0,14,0.07
2013-1-12,44,32,27,38,30,27,98,93,65,30.39,30.27,3,0,14,0.00
2013-1-13,41,30,24,35,28,23,98,92,71,30.47,30.38,2,0,14,0.00
2013-1-14,42,34,27,37,32,26,98,91,77,30.54,30.47,1,0,14,0.02
2013-1-15,48,37,29,44,36,28,99,96,83,30.63,30.53,3,0,14,0.00
2013-1-16,50,34,26,44,32,25,98,93,72,30.61,30.42,2,0,14,0.00
2013-1-17,54,34,26,44,32,25,99,91,63,30.42,30.23,2,0,5,0.00
2013-1-18,57,35,26,49,33,26,98,93,68,30.25,30.19,0,0,0,0.00
2013-1-19,52,37,26,46,35,25,98,93,74,30.29,30.21,4,0,5,0.00
2013-1-20,54,36,27,46,33,27,98,93,63,30.30,30.17,1,0,3,0.00
2013-1-21,55,34,24,41,30,23,98,89,46,30.22,30.07,2,0,5,0.00
2013-1-22,60,39,26,39,33,25,98,80,38,30.10,29.89,4,1,8,0.00
2013-1-23,46,41,37,45,39,36,98,93,78,30.12,29.85,3,0,7,0.47
2013-1-24,51,45,32,47,44,31,99,95,83,30.14,30.06,2,0,5,0.15
2013-1-25,52,47,41,51,46,40,99,97,93,30.12,29.95,4,0,6,0.44
2013-1-26,48,42,38,45,41,38,99,97,83,30.11,29.94,5,0,16,0.46
2013-1-27,43,40,34,42,39,34,99,99,98,30.17,30.06,2,0,6,0.88
2013-1-28,46,44,40,45,43,40,99,97,94,30.28,30.11,4,1,11,0.56
2013-1-29,47,45,44,46,45,44,99,97,95,30.51,30.28,6,2,10,0.17
2013-1-30,49,47,44,49,46,44,100,99,97,30.50,30.45,4,0,7,0.62
2013-1-31,55,47,43,51,46,43,100,94,69,30.46,30.34,3,0,6,0.00
2013-2-1,62,46,36,51,43,35,99,93,58,30.34,30.21,3,0,4,0.00
2013-2-2,61,43,31,51,40,30,99,91,57,30.31,30.21,5,0,8,0.00
2013-2-3,49,46,44,47,45,44,98,96,90,30.32,30.22,1,0,3,0.00
2013-2-4,53,46,41,47,44,41,99,92,75,30.23,29.97,4,0,9,0.00
2013-2-5,51,47,44,48,45,43,98,94,85,30.06,29.91,7,1,21,0.59
2013-2-6,48,45,40,47,44,39,99,96,90,30.09,29.83,6,0,11,0.53
2013-2-7,48,40,35,44,39,34,99,95,83,30.15,29.94,2,0,4,0.11
2013-2-8,50,37,30,44,35,30,99,92,71,30.28,30.15,6,1,10,0.00
2013-2-9,48,41,33,46,40,32,99,97,92,30.30,30.26,3,0,4,0.03
2013-2-10,48,45,41,46,43,41,99,93,82,30.33,30.28,2,0,6,0.00
2013-2-11,49,45,41,46,43,40,98,95,79,30.40,30.32,4,0,5,0.20
2013-2-12,50,47,45,49,47,45,99,98,94,30.49,30.40,3,0,5,0.26
2013-2-13,51,47,43,48,46,43,99,96,87,30.51,30.44,3,0,5,0.15
2013-2-14,56,46,40,51,44,39,99,94,77,30.55,30.45,7,1,10,0.00
2013-2-15,66,46,35,56,44,35,99,92,64,30.45,30.17,3,0,4,0.00
2013-2-16,50,45,40,47,44,38,99,96,87,30.30,30.24,4,1,8,0.16
2013-2-17,47,40,35,43,38,35,99,94,71,30.31,30.08,4,0,8,0.06
2013-2-18,45,40,34,43,39,34,99,96,87,30.08,29.70,1,0,3,0.25
2013-2-19,50,41,33,45,39,32,98,92,75,30.02,29.64,5,1,11,0.15
2013-2-20,45,37,31,44,37,31,99,98,91,30.12,30.02,4,0,8,0.43
2013-2-21,45,41,38,44,41,37,99,98,95,30.23,30.12,3,0,6,0.33
2013-2-22,49,44,39,48,43,38,99,96,87,30.19,29.94,7,1,13,1.12
2013-2-23,48,41,37,43,38,36,99,91,70,30.45,30.10,6,1,12,0.24
2013-2-24,53,44,37,43,39,36,99,85,56,30.44,30.07,6,1,8,0.14
2013-2-25,48,43,36,46,40,35,98,90,69,30.40,30.05,8,1,13,0.46
2013-2-26,52,41,32,43,37,31,99,88,59,30.39,30.23,4,0,9,0.00
2013-2-27,49,47,42,49,46,40,98,96,89,30.28,30.19,2,0,4,0.23
2013-2-28,52,51,49,52,50,48,99,98,97,30.45,30.19,2,0,9,1.04
2013-3-1,56,51,44,53,50,43,99,96,87,30.47,30.32,2,0,7,0.08
2013-3-2,53,46,39,51,45,38,100,97,91,30.33,30.20,3,1,7,0.02
2013-3-3,50,40,33,43,37,32,99,91,69,30.33,30.21,6,1,10,0.01
2013-3-4,57,41,30,46,36,29,99,86,46,30.21,29.87,4,1,9,0.00
2013-3-5,45,42,36,44,42,35,99,97,94,29.87,29.59,3,0,4,0.43
2013-3-6,48,44,41,45,43,40,99,96,89,29.95,29.54,4,0,8,0.33
2013-3-7,54,43,33,44,39,32,99,88,62,30.03,29.95,6,1,8,0.00
2013-3-8,53,40,31,46,38,30,99,91,72,30.22,30.02,8,1,12,0.00
2013-3-9,58,42,32,47,39,32,99,89,57,30.50,30.22,6,1,8,0.00
2013-3-10,52,43,33,48,41,32,99,95,70,30.50,30.40,2,0,5,0.02
2013-3-11,55,49,45,52,48,45,99,96,83,30.42,30.23,2,0,5,0.02
2013-3-12,59,51,47,52,48,45,99,92,71,30.24,30.18,5,1,9,0.00
2013-3-13,62,51,45,52,47,44,98,88,65,30.24,30.10,5,1,7,0.00
2013-3-14,54,49,46,50,47,44,98,93,80,30.22,30.06,3,0,9,0.26
2013-3-15,56,51,47,53,50,47,99,96,87,30.23,30.20,4,0,7,0.03
2013-3-16,50,46,38,48,45,37,99,96,87,30.20,30.05,5,1,10,0.40
2013-3-17,49,41,35,42,38,34,99,90,65,30.32,30.19,5,1,8,0.05
2013-3-18,53,42,34,45,39,33,99,90,69,30.30,30.09,6,1,10,0.01
2013-3-19,52,45,36,51,43,35,99,91,72,30.09,29.65,5,1,9,0.59
2013-3-20,54,47,37,51,44,34,96,88,67,30.21,29.57,9,4,17,0.39
2013-3-21,48,41,37,42,38,35,98,90,67,30.34,30.20,6,1,10,0.13
2013-3-22,47,39,32,41,36,31,98,91,67,30.40,30.32,6,1,15,0.18
2013-3-23,50,39,32,39,35,31,98,87,58,30.40,30.25,5,1,8,0.01
2013-3-24,55,44,36,42,38,35,98,82,51,30.26,30.08,5,1,9,0.00
2013-3-25,57,44,36,46,39,34,98,86,61,30.08,29.93,6,1,9,0.00
2013-3-26,52,45,36,49,44,34,98,95,83,30.02,29.94,3,0,4,0.01
2013-3-27,60,49,42,52,47,42,99,93,68,29.98,29.90,5,0,8,0.02
2013-3-28,60,52,44,54,49,44,99,91,75,30.14,29.98,5,1,9,0.01
2013-3-29,65,52,43,56,49,42,98,89,68,30.19,30.11,7,1,10,0.00
2013-3-30,78,55,40,59,49,39,99,82,42,30.15,29.92,5,1,9,0.00
2013-3-31,66,55,44,56,50,44,98,85,63,30.03,29.96,6,1,8,0.00
2013-4-1,56,53,50,53,51,49,97,93,85,30.19,30.03,3,0,5,0.01
2013-4-2,58,52,48,52,49,47,98,92,81,30.22,30.15,5,1,9,0.01
2013-4-3,66,54,44,57,50,43,98,88,66,30.17,29.89,5,1,7,0.00
2013-4-4,56,53,51,55,52,50,99,96,92,29.91,29.68,5,1,12,0.56
2013-4-5,53,52,51,51,50,50,98,95,92,29.97,29.82,6,2,18,0.70
2013-4-6,53,50,47,51,48,45,98,92,85,30.02,29.68,7,2,14,0.80
2013-4-7,52,47,41,51,45,40,98,93,84,29.99,29.62,10,3,25,0.39
2013-4-8,52,44,39,48,42,38,99,91,72,30.31,29.99,6,1,9,0.09
2013-4-9,60,48,38,51,44,38,98,86,53,30.34,30.24,4,0,6,0.00
2013-4-10,53,49,43,52,47,41,98,93,77,30.35,30.18,6,1,11,0.25
2013-4-11,54,47,39,47,44,38,99,88,74,30.36,30.17,6,2,10,0.01
2013-4-12,54,44,36,47,41,35,99,91,69,30.17,29.91,5,1,9,0.15
2013-4-13,50,44,39,43,40,36,97,87,63,30.14,29.98,8,2,13,0.24
2013-4-14,48,43,38,44,40,36,98,93,77,30.11,29.95,5,1,7,0.32
2013-4-15,51,44,37,44,40,36,98,87,66,30.19,29.97,6,1,13,0.17
2013-4-16,55,45,35,47,41,34,98,87,68,30.41,30.19,7,2,12,0.00
2013-4-17,56,45,36,48,42,34,99,88,70,30.49,30.41,7,1,9,0.00
2013-4-18,58,50,41,49,45,39,97,85,61,30.48,30.35,6,1,8,0.00
2013-4-19,52,50,48,51,49,48,98,97,95,30.36,30.20,5,1,10,0.60
2013-4-20,54,49,44,49,46,42,98,90,76,30.36,30.30,4,1,7,0.02
2013-4-21,54,48,44,49,46,44,98,92,82,30.32,30.26,4,1,6,0.01
2013-4-22,66,51,38,48,39,29,99,71,26,30.38,30.30,6,1,11,0.00
2013-4-23,65,49,32,46,39,32,99,73,33,30.34,30.14,8,2,12,0.00
2013-4-24,76,56,34,52,39,27,99,63,18,30.20,29.99,6,1,9,0.00
2013-4-25,65,50,35,52,44,34,99,82,49,30.17,30.01,7,2,11,0.00
2013-4-26,72,54,42,54,46,40,98,79,43,30.25,30.16,8,2,13,0.00
2013-4-27,63,50,40,51,46,39,98,87,57,30.32,30.25,7,2,9,0.00
2013-4-28,59,53,50,53,49,47,98,87,68,30.30,30.15,6,1,8,0.18
2013-4-29,54,50,38,51,43,35,97,81,53,30.24,30.12,8,2,13,0.09
2013-4-30,54,44,35,44,38,34,98,80,54,30.44,30.24,6,2,12,0.03
2013-5-1,63,47,30,51,40,29,98,78,51,30.49,30.39,7,2,11,0.00
2013-5-2,72,52,35,51,42,34,98,73,30,30.41,30.23,8,2,11,0.00
2013-5-3,69,52,34,54,45,34,98,78,50,30.30,30.11,8,2,11,0.00
2013-5-4,82,61,39,59,42,35,98,61,19,30.12,29.83,7,2,15,0.00
2013-5-5,85,65,46,49,44,36,92,55,20,29.85,29.63,7,2,13,0.00
2013-5-6,66,55,42,54,49,40,98,82,61,29.97,29.82,6,1,12,0.00
2013-5-7,58,54,52,52,49,48,91,85,77,30.07,29.94,5,1,12,0.00
2013-5-8,60,54,51,53,50,49,94,87,76,30.18,30.07,6,1,12,0.00
2013-5-9,64,54,46,56,50,44,96,86,73,30.20,30.10,8,2,12,0.00
2013-5-10,64,53,46,57,50,44,97,90,74,30.25,30.16,6,1,12,0.00
2013-5-11,75,60,49,61,53,44,96,78,42,30.24,30.04,7,1,12,0.00
2013-5-12,64,58,55,56,55,53,97,89,72,30.15,30.08,5,0,12,0.13
2013-5-13,59,54,47,55,53,46,98,94,82,30.23,30.06,6,1,12,0.07
2013-5-14,60,51,42,50,45,41,99,83,57,30.23,30.13,6,1,12,0.00
2013-5-15,59,50,41,54,48,40,98,93,75,30.14,30.00,4,0,12,0.07
2013-5-16,58,55,51,54,52,49,98,90,75,30.00,29.94,6,1,10,0.07
2013-5-17,61,53,44,53,48,43,99,86,66,30.11,29.99,6,1,9,0.00
2013-5-18,57,52,44,56,51,43,98,96,87,30.28,30.10,2,0,5,0.20
2013-5-19,60,54,44,53,49,42,97,84,68,30.42,30.28,6,2,15,0.00
2013-5-20,64,51,39,53,46,38,98,86,65,30.35,29.95,7,2,12,0.02
2013-5-21,50,47,42,48,46,41,97,94,87,30.01,29.88,5,1,11,0.81
2013-5-22,54,47,42,51,46,42,98,96,87,29.99,29.93,5,1,10,0.73
2013-5-23,54,50,47,50,48,47,98,95,81,30.02,29.97,4,0,9,0.88
2013-5-24,56,51,47,52,49,46,98,94,81,30.09,29.99,5,1,7,0.23
2013-5-25,62,54,48,53,50,47,98,86,64,30.08,29.93,5,1,9,0.06
2013-5-26,57,53,51,53,51,49,98,92,80,30.06,29.93,4,1,8,0.11
2013-5-27,58,54,51,56,52,50,98,95,90,29.97,29.74,5,1,10,1.43
2013-5-28,58,54,51,53,51,48,98,91,72,29.96,29.75,5,1,8,0.32
2013-5-31,64,58,47,54,51,45,96,77,67,30.29,30.23,7,2,11,0.00
2013-6-1,69,56,45,58,50,44,99,84,57,30.25,30.07,6,1,10,0.00
2013-6-2,64,57,49,56,52,47,94,84,75,30.10,30.05,9,3,13,0.00
2013-6-3,64,54,44,56,50,43,98,85,70,30.11,30.04,9,3,14,0.00
2013-6-4,69,55,41,59,50,40,98,84,64,30.08,29.98,8,2,12,0.00
2013-6-5,67,56,45,60,53,44,98,89,75,30.09,30.01,10,3,16,0.00
2013-6-6,65,57,48,57,53,47,95,87,75,30.08,30.03,8,2,14,0.00
2013-6-7,70,57,46,58,52,44,98,83,40,30.15,30.08,7,2,11,0.00
2013-6-8,66,54,48,56,50,47,98,89,65,30.16,30.11,8,1,13,0.00
2013-6-12,60,56,52,53,50,49,95,82,73,30.21,30.18,6,2,10,0.05
2013-6-13,61,55,51,56,53,50,98,92,76,30.31,30.17,6,1,10,0.98
2013-6-14,66,58,48,57,53,47,98,86,68,30.30,29.97,8,2,12,0.00
2013-6-15,65,56,46,59,52,46,99,90,76,30.05,29.93,5,1,9,0.01
2013-6-16,57,56,55,54,53,52,95,91,84,30.14,30.05,1,0,6,0.00
2013-6-17,69,58,48,58,53,47,98,86,57,30.12,30.01,5,1,10,0.09
2013-6-18,61,56,49,56,53,48,98,90,79,30.01,29.96,6,1,11,0.04
2013-6-19,62,56,52,56,53,52,98,90,71,30.11,29.96,6,1,8,0.15
2013-6-20,64,57,51,57,54,50,98,88,67,30.14,30.06,6,1,10,0.18
2013-6-21,67,58,50,57,52,48,98,84,62,30.17,30.10,6,2,9,0.01
2013-6-22,77,60,47,62,52,46,99,79,42,30.11,29.86,5,1,7,0.02
2013-6-23,66,60,57,62,59,56,99,95,85,29.86,29.64,4,0,7,0.16
2013-6-24,62,58,55,57,56,54,98,94,79,29.72,29.65,4,0,9,0.49
2013-6-25,63,59,56,60,57,55,98,94,80,29.85,29.67,4,1,13,0.41
2013-6-26,69,62,58,63,59,57,99,90,72,30.01,29.83,5,1,7,0.15
2013-6-27,72,64,57,64,61,56,99,91,74,30.16,29.97,5,0,8,0.01
2013-6-28,80,67,57,69,61,56,99,84,61,30.15,30.06,6,1,8,0.00
2013-6-29,81,66,55,66,60,55,99,82,57,30.11,29.97,8,2,11,0.00
2013-6-30,76,65,55,68,60,54,99,86,65,29.97,29.90,7,2,10,0.00
2013-7-1,71,65,61,65,61,59,95,89,80,30.06,29.93,8,3,11,0.00
2013-7-2,71,64,59,64,60,56,94,87,75,30.09,30.04,8,3,13,0.00
2013-7-3,70,60,52,62,55,51,98,84,65,30.14,30.07,8,2,12,0.00
2013-7-4,69,60,48,58,53,47,98,77,62,30.14,30.05,8,3,17,0.00
2013-7-5,67,62,58,58,54,51,82,75,67,30.07,29.96,7,3,15,0.00
2013-7-6,69,59,45,59,53,44,98,83,68,29.99,29.88,7,2,15,0.00
2013-7-7,68,60,50,58,55,48,97,83,69,29.99,29.92,8,2,15,0.00
2013-7-8,69,58,45,59,53,44,98,84,66,30.07,29.98,9,2,15,0.00
2013-7-9,68,58,49,61,55,48,98,90,77,30.09,30.02,9,3,15,0.00
2013-7-10,66,58,45,58,52,45,99,81,65,30.08,29.97,9,3,15,0.00
2013-7-11,68,60,51,56,50,47,87,70,55,30.06,29.98,7,2,12,0.00
2013-7-12,67,55,40,54,48,39,98,78,57,30.10,30.00,8,2,13,0.00
2013-7-13,70,56,40,57,49,39,98,81,60,30.15,30.02,8,2,12,0.00
2013-7-14,70,56,45,57,51,43,98,83,62,30.10,29.98,9,2,13,0.00
2013-7-15,72,57,42,59,51,41,98,82,55,30.02,29.80,8,3,13,0.00
2013-7-16,69,56,46,61,53,45,98,91,72,30.02,29.77,4,1,10,0.00
2013-7-17,66,59,48,57,55,46,97,87,73,30.19,30.02,5,1,9,0.01
2013-7-18,68,56,44,60,52,43,98,85,68,30.21,30.10,9,3,14,0.00
2013-7-19,66,56,43,58,52,42,98,87,73,30.15,30.05,9,2,14,0.00
2013-7-20,66,59,54,58,54,52,93,85,74,30.09,29.98,8,3,13,0.00
2013-7-21,69,59,48,60,55,47,98,86,71,30.00,29.90,8,2,12,0.00
2013-7-22,70,61,52,60,56,50,95,84,70,30.03,29.95,8,2,12,0.00
2013-7-23,68,57,51,60,54,50,98,90,72,30.04,29.98,9,3,12,0.00
2013-7-24,66,56,50,58,53,49,98,89,72,30.06,30.00,9,3,14,0.00
2013-7-25,70,58,49,59,53,47,98,85,65,30.09,30.01,9,3,13,0.00
2013-7-26,69,57,43,58,52,42,98,82,65,30.17,30.06,9,2,13,0.00
2013-7-27,67,58,45,57,52,44,98,82,67,30.19,30.05,7,3,13,0.00
2013-7-28,68,59,48,58,53,47,97,81,67,30.07,29.97,6,2,11,0.00
2013-7-29,66,57,46,57,52,44,97,84,69,30.06,29.97,6,1,11,0.00
2013-7-30,67,60,55,59,55,52,92,85,74,30.15,30.06,7,2,12,0.00
2013-7-31,63,59,57,57,56,55,97,89,80,30.13,30.07,4,1,10,0.00
2013-8-1,64,59,56,59,57,56,98,93,83,30.12,30.07,5,1,10,0.07
2013-8-2,66,60,51,60,57,50,98,91,77,30.13,30.09,4,1,10,0.06
2013-8-3,70,60,50,62,56,48,98,88,73,30.10,29.99,8,2,12,0.00
2013-8-4,65,58,52,60,56,51,98,92,80,30.03,29.96,8,3,14,0.00
2013-8-5,66,57,52,58,54,51,98,91,75,30.04,29.95,8,3,12,0.00
2013-8-6,71,58,51,59,54,50,98,87,64,30.00,29.93,8,2,12,0.00
2013-8-7,62,56,52,58,54,51,98,93,83,30.07,29.98,5,1,10,0.00
2013-8-8,70,59,52,63,56,51,98,91,76,30.06,29.93,8,2,11,0.00
2013-8-9,70,60,52,62,57,51,97,90,74,29.97,29.86,8,2,12,0.00
2013-8-10,65,60,56,58,57,54,96,89,78,30.06,29.93,6,1,10,0.00
2013-8-11,64,60,56,59,57,54,97,90,80,30.07,30.02,3,0,10,0.00
2013-8-12,70,61,48,60,55,47,97,84,62,30.08,30.03,5,1,12,0.00
2013-8-13,75,58,45,59,52,44,99,81,55,30.10,29.94,8,2,10,0.00
2013-8-14,75,63,49,64,58,47,98,84,52,29.99,29.93,5,1,10,0.14
2013-8-15,69,64,62,67,63,61,98,96,89,29.98,29.91,3,0,5,0.12
2013-8-16,73,65,54,66,61,53,99,89,61,30.06,29.95,5,1,7,0.00
2013-8-17,70,61,52,63,59,52,99,91,78,30.10,30.04,3,0,5,0.00
2013-8-18,74,63,52,64,58,51,99,86,65,30.12,30.04,7,2,11,0.00
2013-8-19,74,62,52,63,57,51,99,84,63,30.11,30.05,7,2,11,0.00
2013-8-20,74,60,45,60,53,44,99,79,57,30.12,29.96,9,2,11,0.00
2013-8-21,78,61,46,60,53,45,99,78,47,29.99,29.85,7,2,11,0.00
2013-8-22,66,57,48,60,54,47,98,90,77,29.94,29.87,7,1,9,0.00
2013-8-23,70,62,58,61,59,57,98,90,69,29.94,29.90,8,1,10,0.01
2013-8-24,70,62,53,61,58,51,97,86,63,29.91,29.86,7,2,11,0.00
2013-8-25,71,59,51,60,55,50,98,89,64,29.93,29.88,4,0,6,0.00
2013-8-26,71,60,51,60,55,50,98,87,56,29.95,29.89,5,0,12,0.44
2013-8-27,73,65,60,66,62,60,99,91,74,29.93,29.82,6,1,9,0.20
2013-8-28,74,65,62,66,62,61,98,91,74,29.90,29.81,5,1,9,0.02
2013-8-29,68,64,61,66,63,60,99,97,92,30.07,29.82,3,0,12,0.45
2013-8-30,75,66,54,66,62,53,99,88,66,30.14,30.03,6,1,11,0.05
2013-8-31,78,62,52,65,58,52,99,87,59,30.03,29.87,6,1,12,0.00
2013-9-1,77,66,56,63,58,54,96,79,52,29.92,29.83,8,1,12,0.00
2013-9-2,73,65,52,64,60,50,97,85,56,29.93,29.84,6,1,11,0.03
2013-9-3,72,61,50,62,56,49,99,87,67,30.00,29.92,7,1,11,0.00
2013-9-4,71,62,54,63,59,53,98,90,71,30.05,29.98,5,1,7,0.00
2013-9-5,66,60,56,62,59,55,98,96,87,30.07,30.00,4,1,10,0.78
2013-9-6,67,62,58,63,60,57,99,93,77,30.14,30.06,5,1,10,0.05
2013-9-7,71,62,54,65,59,54,99,92,78,30.09,29.95,7,2,10,0.01
2013-9-8,78,64,58,68,61,58,99,91,69,30.05,29.97,10,2,15,0.00
2013-9-9,74,63,55,65,60,54,98,90,74,30.02,29.90,10,3,13,0.00
2013-9-10,80,64,53,67,59,52,99,86,62,29.91,29.74,8,2,11,0.00
2013-9-11,69,61,56,62,58,55,98,90,75,29.99,29.77,6,1,10,0.00
2013-9-12,69,61,58,63,59,57,98,92,77,29.99,29.95,6,1,10,0.01
2013-9-13,66,62,58,62,59,57,96,92,85,29.98,29.84,5,1,9,0.00
2013-9-14,65,61,59,62,59,58,97,94,89,29.85,29.74,6,1,8,0.00
2013-9-15,63,60,59,61,59,58,98,97,92,29.89,29.74,4,0,7,0.11
2013-9-16,67,61,58,63,59,58,98,94,83,29.98,29.89,6,1,10,0.06
2013-9-17,67,60,51,58,56,50,97,87,67,30.02,29.86,8,2,12,0.00
2013-9-18,69,58,49,60,54,47,99,87,64,30.09,29.98,7,1,10,0.04
2013-9-19,76,57,44,60,51,44,99,83,47,29.99,29.79,6,1,10,0.00
2013-9-20,62,55,46,61,54,45,98,97,92,29.79,29.64,1,0,3,0.23
2013-9-21,63,58,54,59,56,53,99,93,80,29.78,29.66,5,1,8,0.01
2013-9-22,63,57,54,61,56,54,99,96,88,29.86,29.68,7,1,11,0.62
2013-9-23,62,57,54,60,56,53,99,97,91,30.00,29.86,4,0,10,0.30
2013-9-24,59,53,49,57,52,48,99,96,88,29.98,29.87,5,0,9,0.48
2013-9-25,60,52,45,52,48,44,99,90,65,30.06,29.87,7,1,11,0.22
2013-9-26,64,50,40,56,47,40,99,89,64,30.18,30.05,8,1,12,0.00
2013-9-27,58,51,44,58,51,43,99,98,97,30.18,29.91,2,0,6,0.72
2013-9-28,62,58,53,60,57,52,99,96,92,29.91,29.55,8,2,22,1.59
2013-9-29,61,57,53,60,55,49,98,93,81,29.69,29.42,11,3,22,1.80
2013-9-30,60,55,51,56,52,49,98,90,78,30.00,29.65,10,2,24,0.40
2013-10-1,60,52,42,54,49,41,99,91,64,30.19,29.97,7,1,22,0.53
2013-10-2,57,47,40,53,46,40,99,96,82,30.20,30.07,6,0,22,0.23
2013-10-3,60,49,40,54,46,39,99,91,69,30.41,30.19,5,1,22,0.01
2013-10-4,68,51,39,57,47,39,99,88,58,30.42,30.31,6,1,22,0.01
2013-10-5,74,52,38,60,48,38,99,87,48,30.31,30.10,3,0,22,0.00
2013-10-6,72,53,35,61,47,35,99,84,32,30.10,29.99,7,1,22,0.04
2013-10-7,62,55,50,55,52,49,98,91,69,30.16,29.99,9,2,22,0.27
2013-10-8,55,50,43,53,49,43,99,97,87,30.17,30.00,5,0,22,0.38
2013-10-9,61,48,37,52,45,37,99,90,65,30.08,29.97,6,1,22,0.00
2013-10-10,60,49,43,54,47,42,98,93,77,30.10,29.95,5,1,22,0.02
2013-10-11,58,48,42,52,46,41,98,91,70,30.14,30.09,4,0,22,0.00
2013-10-12,59,48,42,54,47,41,99,94,78,30.16,30.06,3,0,8,0.11
2013-10-13,61,48,40,53,46,39,98,91,70,30.28,30.15,6,1,8,0.01
2013-10-14,65,48,38,54,45,38,99,89,58,30.33,30.24,5,1,7,0.00
2013-10-15,69,48,35,53,43,35,99,85,43,30.27,30.11,4,0,7,0.01
2013-10-16,65,48,36,54,44,35,99,89,57,30.15,30.09,6,1,9,0.00
2013-10-17,64,49,40,56,47,40,99,92,72,30.20,30.11,6,1,9,0.00
2013-10-18,70,49,38,56,46,38,98,88,55,30.14,30.04,6,1,8,0.01
2013-10-19,66,48,36,56,44,35,98,90,61,30.13,30.08,7,1,10,0.00
2013-10-20,63,50,43,56,48,43,99,94,78,30.13,30.05,9,2,12,0.00
2013-10-21,73,52,42,61,49,42,99,90,61,30.06,29.92,4,0,6,0.01
2013-10-22,62,50,42,57,48,42,99,95,79,30.03,29.98,6,1,9,0.00
2013-10-23,54,50,47,52,49,47,98,96,94,30.02,29.97,4,1,6,0.00
2013-10-24,54,51,47,52,49,46,97,95,92,30.10,29.99,5,0,8,0.00
2013-10-25,56,52,49,53,50,48,96,94,89,30.24,30.10,0,0,2,0.00
2013-10-26,59,50,43,52,48,42,98,91,76,30.27,30.16,6,1,8,0.00
2013-10-27,60,50,40,54,47,39,99,91,66,30.17,29.84,7,1,17,0.05
2013-10-28,61,44,33,49,38,32,98,81,37,29.90,29.77,7,1,10,0.00
2013-10-29,62,40,28,45,35,27,98,83,41,30.06,29.90,4,0,6,0.01
2013-10-30,61,43,28,48,38,27,98,86,48,30.17,30.05,4,0,6,0.00
2013-10-31,55,51,48,54,50,46,98,96,92,30.25,30.15,2,0,6,0.06
2013-11-1,64,53,41,57,51,41,99,93,75,30.26,29.87,3,0,4,0.13
2013-11-2,57,51,44,52,48,41,98,89,71,30.10,29.79,8,2,14,0.46
2013-11-3,49,44,40,48,44,39,98,97,93,30.18,30.09,2,0,6,0.47
2013-11-4,50,48,44,50,48,44,99,98,97,30.16,30.09,1,0,5,0.54
2013-11-5,55,53,50,55,52,49,99,98,97,30.23,30.08,3,0,4,0.86
2013-11-6,58,55,53,58,55,53,99,99,98,30.25,30.06,1,0,3,0.17
2013-11-7,56,52,48,55,50,47,99,95,78,30.15,29.92,8,1,16,0.73
2013-11-8,52,49,44,51,48,44,99,97,93,30.19,30.09,1,0,2,0.19
2013-11-9,52,46,40,50,45,40,99,97,90,30.09,30.00,1,0,2,0.01
2013-11-10,66,51,41,59,49,40,99,93,64,30.06,29.99,1,0,4,0.00
2013-11-11,64,53,43,57,49,42,98,88,68,30.07,29.95,2,0,7,0.00
2013-11-12,57,54,50,56,53,49,98,97,93,30.42,30.05,2,0,4,0.35
2013-11-13,55,50,46,53,50,46,99,97,92,30.46,30.29,3,0,6,0.00
2013-11-14,51,47,43,49,46,43,98,96,90,30.29,30.11,3,0,5,0.15
2013-11-15,51,45,40,50,44,39,99,97,96,30.12,29.63,9,1,17,0.26
2013-11-16,51,47,45,50,46,44,98,95,88,29.88,29.62,7,1,13,0.06
2013-11-17,53,49,45,52,48,45,99,97,90,29.99,29.88,4,0,7,0.22
2013-11-18,55,52,49,53,51,48,98,97,94,29.97,29.73,6,2,18,0.75
2013-11-19,54,48,40,53,45,32,97,88,69,30.02,29.70,5,2,11,0.71
2013-11-20,50,36,28,41,32,27,98,88,45,30.34,30.02,6,0,11,0.00
2013-11-21,48,31,24,40,29,23,97,92,56,30.50,30.34,3,0,8,0.01
2013-11-22,52,32,22,42,29,21,97,91,55,30.50,30.27,0,0,8,0.00
2013-11-23,60,35,25,46,32,24,98,90,42,30.28,30.08,0,0,8,0.00
2013-11-24,59,36,27,46,32,26,97,89,44,30.23,30.08,3,0,8,0.00
2013-11-25,58,36,26,48,33,25,98,91,51,30.29,30.23,3,0,8,0.01
2013-11-26,55,42,30,48,39,29,98,89,65,30.24,30.01,4,0,8,0.00
2013-11-27,61,42,31,50,38,31,98,88,54,30.00,29.88,2,0,8,0.00
2013-11-28,57,37,28,49,35,28,98,93,66,30.18,29.97,4,0,5,0.00
2013-11-29,49,39,30,46,38,29,98,96,87,30.34,30.18,1,0,3,0.01
2013-11-30,54,47,40,49,45,40,98,94,79,30.38,30.25,2,0,3,0.06
2013-12-1,55,53,49,54,52,48,98,97,95,30.25,30.00,9,4,17,0.99
2013-12-2,52,43,34,51,41,34,97,93,76,30.07,29.98,6,2,15,0.62
2013-12-3,46,35,27,41,33,26,98,91,64,30.25,30.05,3,0,7,0.02
2013-12-4,42,29,22,35,26,21,97,91,52,30.30,30.24,1,0,2,0.01
2013-12-5,38,26,18,29,23,16,97,88,59,30.28,30.09,0,0,1,0.00
2013-12-6,32,30,21,29,25,18,94,82,64,30.09,29.89,3,0,7,0.01
2013-12-7,33,21,14,22,17,12,94,84,48,30.42,30.05,4,0,6,0.02
2013-12-8,31,22,10,27,18,8,93,86,68,30.56,30.40,3,0,4,0.00
2013-12-9,40,28,16,34,25,15,95,91,69,30.58,30.50,2,0,4,0.01
2013-12-10,46,33,27,41,32,26,97,94,80,30.52,30.36,2,0,3,0.00
2013-12-11,51,31,24,40,29,22,97,91,62,30.36,30.16,2,0,4,0.00
2013-12-12,47,35,25,42,34,24,98,96,83,30.19,30.08,1,0,4,0.50
2013-12-13,50,43,37,50,42,36,99,98,97,30.42,30.19,0,0,3,0.14
2013-12-14,52,40,32,49,39,32,99,97,89,30.44,30.34,4,0,6,0.01
2013-12-15,51,45,40,51,45,39,99,98,98,30.45,30.40,3,0,4,0.04
2013-12-16,56,41,32,51,40,31,99,96,82,30.44,30.20,2,0,3,0.00
2013-12-17,46,38,30,44,37,29,99,97,91,30.22,30.16,6,1,7,0.01
2013-12-18,48,42,33,47,40,31,99,94,82,30.17,30.04,4,1,11,0.02
2013-12-19,41,32,27,39,31,26,98,96,87,30.31,30.13,1,0,3,0.00
2013-12-20,50,40,32,50,39,31,99,98,93,30.23,29.92,6,1,13,0.64
2013-12-21,51,48,46,49,47,46,98,97,91,30.26,29.98,6,1,12,0.06
2013-12-22,50,47,45,50,47,45,99,98,97,30.35,30.25,2,0,3,0.14
2013-12-23,51,46,39,50,46,38,99,98,94,30.54,30.34,4,0,10,0.29
2013-12-24,50,37,31,47,36,31,99,97,86,30.59,30.44,3,0,4,0.01
2013-12-25,49,35,30,45,34,30,99,96,85,30.45,30.33,3,0,5,0.00
2013-12-26,46,34,28,44,33,27,99,96,86,30.35,30.18,1,0,3,0.00
2013-12-27,52,38,29,47,37,29,99,96,78,30.37,30.15,4,0,9,0.01
2013-12-28,47,38,31,43,37,30,99,96,83,30.49,30.37,2,0,4,0.00
2013-12-29,47,34,29,44,34,28,99,97,90,30.44,30.24,2,0,3,0.00
2013-12-30,48,38,32,46,37,32,99,97,91,30.25,30.15,2,0,4,0.00
2013-12-31,54,40,35,49,39,34,99,96,81,30.32,30.23,1,0,3,0.00
2014-1-1,51,38,31,48,37,30,99,97,89,30.33,30.20,3,0,5,0.00
2014-1-2,58,41,32,52,40,32,99,96,67,30.23,30.07,2,0,3,0.18